sensor_id;sensor_type;location;lat;lon;timestamp;temperature;humidity
37702;DHT22;23548;51.196;6.838;2023-03-29T00:00:55;6.60;99.90
37702;DHT22;23548;51.196;6.838;2023-03-29T00:03:27;6.50;99.90
37702;DHT22;23548;51.196;6.838;2023-03-29T00:05:57;6.50;99.90
37702;DHT22;23548;51.196;6.838;2023-03-29T00:08:28;6.40;99.90
37702;DHT22;23548;51.196;6.838;2023-03-29T00:10:54;6.50;99.90
37702;DHT22;23548;51.196;6.838;2023-03-29T00:13:21;6.40;99.90
37702;DHT22;23548;51.196;6.838;2023-03-29T00:15:47;6.50;99.90
37702;DHT22;23548;51.196;6.838;2023-03-29T00:18:12;6.40;99.90
37702;DHT22;23548;51.196;6.838;2023-03-29T00:20:38;6.40;99.90
37702;DHT22;23548;51.196;6.838;2023-03-29T00:23:04;6.40;99.90
37702;DHT22;23548;51.196;6.838;2023-03-29T00:25:30;6.50;99.90
37702;DHT22;23548;51.196;6.838;2023-03-29T00:27:56;6.50;99.90
37702;DHT22;23548;51.196;6.838;2023-03-29T00:30:21;6.50;99.90
37702;DHT22;23548;51.196;6.838;2023-03-29T00:32:47;6.60;99.90
37702;DHT22;23548;51.196;6.838;2023-03-29T00:35:13;6.60;99.90
37702;DHT22;23548;51.196;6.838;2023-03-29T00:37:38;6.60;99.90
37702;DHT22;23548;51.196;6.838;2023-03-29T00:40:06;6.50;99.90
37702;DHT22;23548;51.196;6.838;2023-03-29T00:42:36;6.40;99.90
37702;DHT22;23548;51.196;6.838;2023-03-29T00:45:06;6.40;99.90
37702;DHT22;23548;51.196;6.838;2023-03-29T00:50:26;6.30;99.90
37702;DHT22;23548;51.196;6.838;2023-03-29T00:53:09;6.40;99.90
37702;DHT22;23548;51.196;6.838;2023-03-29T00:55:52;6.20;99.90
37702;DHT22;23548;51.196;6.838;2023-03-29T01:01:11;6.30;99.90
37702;DHT22;23548;51.196;6.838;2023-03-29T01:06:48;6.40;99.90
37702;DHT22;23548;51.196;6.838;2023-03-29T01:09:18;6.50;99.90
37702;DHT22;23548;51.196;6.838;2023-03-29T01:11:50;6.40;99.90
37702;DHT22;23548;51.196;6.838;2023-03-29T01:14:18;6.40;99.90
37702;DHT22;23548;51.196;6.838;2023-03-29T01:16:46;6.40;99.90
37702;DHT22;23548;51.196;6.838;2023-03-29T01:19:16;6.40;99.90
37702;DHT22;23548;51.196;6.838;2023-03-29T01:27:16;6.50;99.90
37702;DHT22;23548;51.196;6.838;2023-03-29T01:29:53;6.40;99.90
37702;DHT22;23548;51.196;6.838;2023-03-29T01:32:25;6.40;99.90
37702;DHT22;23548;51.196;6.838;2023-03-29T01:35:04;6.40;99.90
37702;DHT22;23548;51.196;6.838;2023-03-29T01:37:59;6.40;99.90
37702;DHT22;23548;51.196;6.838;2023-03-29T01:40:26;6.60;99.90
37702;DHT22;23548;51.196;6.838;2023-03-29T01:45:52;6.60;99.90
37702;DHT22;23548;51.196;6.838;2023-03-29T01:48:47;6.70;99.90
37702;DHT22;23548;51.196;6.838;2023-03-29T01:51:20;6.50;99.90
37702;DHT22;23548;51.196;6.838;2023-03-29T01:53:59;6.50;99.90
37702;DHT22;23548;51.196;6.838;2023-03-29T01:56:27;6.50;99.90
37702;DHT22;23548;51.196;6.838;2023-03-29T01:58:59;6.60;99.90
37702;DHT22;23548;51.196;6.838;2023-03-29T02:01:30;6.60;99.90
37702;DHT22;23548;51.196;6.838;2023-03-29T02:04:00;6.50;99.90
37702;DHT22;23548;51.196;6.838;2023-03-29T02:06:30;6.50;99.90
37702;DHT22;23548;51.196;6.838;2023-03-29T02:08:57;6.50;99.90
37702;DHT22;23548;51.196;6.838;2023-03-29T02:11:24;6.50;99.90
37702;DHT22;23548;51.196;6.838;2023-03-29T02:13:52;6.50;99.90
37702;DHT22;23548;51.196;6.838;2023-03-29T02:16:18;6.60;99.90
37702;DHT22;23548;51.196;6.838;2023-03-29T02:18:45;6.60;99.90
37702;DHT22;23548;51.196;6.838;2023-03-29T02:21:23;6.70;99.90
37702;DHT22;23548;51.196;6.838;2023-03-29T02:23:50;6.60;99.90
37702;DHT22;23548;51.196;6.838;2023-03-29T02:26:19;6.70;99.90
37702;DHT22;23548;51.196;6.838;2023-03-29T02:28:46;6.70;99.90
37702;DHT22;23548;51.196;6.838;2023-03-29T02:31:19;6.70;99.90
37702;DHT22;23548;51.196;6.838;2023-03-29T02:34:10;6.70;99.90
37702;DHT22;23548;51.196;6.838;2023-03-29T02:37:01;6.70;99.90
37702;DHT22;23548;51.196;6.838;2023-03-29T02:39:29;6.70;99.90
37702;DHT22;23548;51.196;6.838;2023-03-29T02:41:57;6.70;99.90
37702;DHT22;23548;51.196;6.838;2023-03-29T02:44:26;6.70;99.90
37702;DHT22;23548;51.196;6.838;2023-03-29T02:46:59;6.70;99.90
37702;DHT22;23548;51.196;6.838;2023-03-29T02:49:26;6.80;99.90
37702;DHT22;23548;51.196;6.838;2023-03-29T02:51:56;6.80;99.90
37702;DHT22;23548;51.196;6.838;2023-03-29T02:54:24;6.80;99.90
37702;DHT22;23548;51.196;6.838;2023-03-29T02:57:02;6.80;99.90
37702;DHT22;23548;51.196;6.838;2023-03-29T02:59:31;6.80;99.90
37702;DHT22;23548;51.196;6.838;2023-03-29T03:01:58;6.90;99.90
37702;DHT22;23548;51.196;6.838;2023-03-29T03:04:24;6.90;99.90
37702;DHT22;23548;51.196;6.838;2023-03-29T03:06:50;7.00;99.90
37702;DHT22;23548;51.196;6.838;2023-03-29T03:09:16;7.00;99.90
37702;DHT22;23548;51.196;6.838;2023-03-29T03:11:42;7.10;99.90
37702;DHT22;23548;51.196;6.838;2023-03-29T03:14:08;7.10;99.90
37702;DHT22;23548;51.196;6.838;2023-03-29T03:16:34;7.00;99.90
37702;DHT22;23548;51.196;6.838;2023-03-29T03:19:00;7.00;99.90
37702;DHT22;23548;51.196;6.838;2023-03-29T03:21:26;7.00;99.90
37702;DHT22;23548;51.196;6.838;2023-03-29T03:23:53;6.90;99.90
37702;DHT22;23548;51.196;6.838;2023-03-29T03:26:19;7.00;99.90
37702;DHT22;23548;51.196;6.838;2023-03-29T03:28:44;7.10;99.90
37702;DHT22;23548;51.196;6.838;2023-03-29T03:31:11;7.10;99.90
37702;DHT22;23548;51.196;6.838;2023-03-29T03:33:40;7.00;99.90
37702;DHT22;23548;51.196;6.838;2023-03-29T03:36:07;6.90;99.90
37702;DHT22;23548;51.196;6.838;2023-03-29T03:38:34;6.90;99.90
37702;DHT22;23548;51.196;6.838;2023-03-29T03:41:01;7.00;99.90
37702;DHT22;23548;51.196;6.838;2023-03-29T03:43:27;7.10;99.90
37702;DHT22;23548;51.196;6.838;2023-03-29T03:45:56;7.10;99.90
37702;DHT22;23548;51.196;6.838;2023-03-29T03:48:23;7.00;99.90
37702;DHT22;23548;51.196;6.838;2023-03-29T03:50:51;7.10;99.90
37702;DHT22;23548;51.196;6.838;2023-03-29T03:53:18;7.10;99.90
37702;DHT22;23548;51.196;6.838;2023-03-29T03:55:51;7.10;99.90
37702;DHT22;23548;51.196;6.838;2023-03-29T03:58:18;7.20;99.90
37702;DHT22;23548;51.196;6.838;2023-03-29T04:00:46;7.20;99.90
37702;DHT22;23548;51.196;6.838;2023-03-29T04:03:13;7.20;99.90
37702;DHT22;23548;51.196;6.838;2023-03-29T04:05:43;7.30;99.90
37702;DHT22;23548;51.196;6.838;2023-03-29T04:08:12;7.30;99.90
37702;DHT22;23548;51.196;6.838;2023-03-29T04:10:38;7.30;99.90
37702;DHT22;23548;51.196;6.838;2023-03-29T04:13:04;7.30;99.90
37702;DHT22;23548;51.196;6.838;2023-03-29T04:15:31;7.20;99.90
37702;DHT22;23548;51.196;6.838;2023-03-29T04:17:58;7.20;99.90
37702;DHT22;23548;51.196;6.838;2023-03-29T04:20:24;7.20;99.90
37702;DHT22;23548;51.196;6.838;2023-03-29T04:22:50;7.20;99.90
37702;DHT22;23548;51.196;6.838;2023-03-29T04:25:17;7.20;99.90
37702;DHT22;23548;51.196;6.838;2023-03-29T04:27:43;7.20;99.90
37702;DHT22;23548;51.196;6.838;2023-03-29T04:30:10;7.10;99.90
37702;DHT22;23548;51.196;6.838;2023-03-29T04:32:36;7.10;99.90
37702;DHT22;23548;51.196;6.838;2023-03-29T04:35:03;7.00;99.90
37702;DHT22;23548;51.196;6.838;2023-03-29T04:37:30;6.70;99.90
37702;DHT22;23548;51.196;6.838;2023-03-29T04:39:56;6.60;99.90
37702;DHT22;23548;51.196;6.838;2023-03-29T04:42:25;6.70;99.90
37702;DHT22;23548;51.196;6.838;2023-03-29T04:44:51;6.60;99.90
37702;DHT22;23548;51.196;6.838;2023-03-29T04:47:18;6.50;99.90
37702;DHT22;23548;51.196;6.838;2023-03-29T04:49:44;6.50;99.90
37702;DHT22;23548;51.196;6.838;2023-03-29T04:52:10;6.50;99.90
37702;DHT22;23548;51.196;6.838;2023-03-29T04:54:36;6.60;99.90
37702;DHT22;23548;51.196;6.838;2023-03-29T04:57:06;6.50;99.90
37702;DHT22;23548;51.196;6.838;2023-03-29T04:59:32;6.50;99.90
37702;DHT22;23548;51.196;6.838;2023-03-29T05:01:59;6.40;99.90
37702;DHT22;23548;51.196;6.838;2023-03-29T05:04:28;6.40;99.90
37702;DHT22;23548;51.196;6.838;2023-03-29T05:06:54;6.40;99.90
37702;DHT22;23548;51.196;6.838;2023-03-29T05:09:20;6.50;99.90
37702;DHT22;23548;51.196;6.838;2023-03-29T05:11:47;6.60;99.90
37702;DHT22;23548;51.196;6.838;2023-03-29T05:14:13;6.70;99.90
37702;DHT22;23548;51.196;6.838;2023-03-29T05:16:38;6.80;99.90
37702;DHT22;23548;51.196;6.838;2023-03-29T05:19:05;6.80;99.90
37702;DHT22;23548;51.196;6.838;2023-03-29T05:21:31;6.80;99.90
37702;DHT22;23548;51.196;6.838;2023-03-29T05:23:57;6.80;99.90
37702;DHT22;23548;51.196;6.838;2023-03-29T05:26:23;6.80;99.90
37702;DHT22;23548;51.196;6.838;2023-03-29T05:28:49;6.90;99.90
37702;DHT22;23548;51.196;6.838;2023-03-29T05:31:16;6.90;99.90
37702;DHT22;23548;51.196;6.838;2023-03-29T05:33:42;6.90;99.90
37702;DHT22;23548;51.196;6.838;2023-03-29T05:36:12;6.90;99.90
37702;DHT22;23548;51.196;6.838;2023-03-29T05:38:40;7.10;99.90
37702;DHT22;23548;51.196;6.838;2023-03-29T05:41:06;7.10;99.90
37702;DHT22;23548;51.196;6.838;2023-03-29T05:43:32;7.20;99.90
37702;DHT22;23548;51.196;6.838;2023-03-29T05:45:58;7.10;99.90
37702;DHT22;23548;51.196;6.838;2023-03-29T05:48:25;7.10;99.90
37702;DHT22;23548;51.196;6.838;2023-03-29T05:50:52;7.10;99.90
37702;DHT22;23548;51.196;6.838;2023-03-29T05:53:20;7.10;99.90
37702;DHT22;23548;51.196;6.838;2023-03-29T05:55:46;7.20;99.90
37702;DHT22;23548;51.196;6.838;2023-03-29T05:58:13;7.20;99.90
37702;DHT22;23548;51.196;6.838;2023-03-29T06:00:40;7.20;99.90
37702;DHT22;23548;51.196;6.838;2023-03-29T06:03:16;7.30;99.90
37702;DHT22;23548;51.196;6.838;2023-03-29T06:05:46;7.40;99.90
37702;DHT22;23548;51.196;6.838;2023-03-29T06:08:14;7.50;99.90
37702;DHT22;23548;51.196;6.838;2023-03-29T06:10:41;7.50;99.90
37702;DHT22;23548;51.196;6.838;2023-03-29T06:13:07;7.60;99.90
37702;DHT22;23548;51.196;6.838;2023-03-29T06:15:33;7.50;99.90
37702;DHT22;23548;51.196;6.838;2023-03-29T06:18:00;7.60;99.90
37702;DHT22;23548;51.196;6.838;2023-03-29T06:20:26;7.70;99.90
37702;DHT22;23548;51.196;6.838;2023-03-29T06:22:52;7.80;99.90
37702;DHT22;23548;51.196;6.838;2023-03-29T06:25:18;7.80;99.90
37702;DHT22;23548;51.196;6.838;2023-03-29T06:27:45;7.80;99.90
37702;DHT22;23548;51.196;6.838;2023-03-29T06:30:12;7.90;99.90
37702;DHT22;23548;51.196;6.838;2023-03-29T06:32:40;7.90;99.90
37702;DHT22;23548;51.196;6.838;2023-03-29T06:35:07;8.00;99.90
37702;DHT22;23548;51.196;6.838;2023-03-29T06:37:33;8.10;99.90
37702;DHT22;23548;51.196;6.838;2023-03-29T06:39:59;8.00;99.90
37702;DHT22;23548;51.196;6.838;2023-03-29T06:42:25;8.10;99.90
37702;DHT22;23548;51.196;6.838;2023-03-29T06:44:51;8.10;99.90
37702;DHT22;23548;51.196;6.838;2023-03-29T06:47:18;8.20;99.90
37702;DHT22;23548;51.196;6.838;2023-03-29T06:49:44;8.20;99.90
37702;DHT22;23548;51.196;6.838;2023-03-29T06:52:10;8.40;99.90
37702;DHT22;23548;51.196;6.838;2023-03-29T06:54:36;8.60;99.90
37702;DHT22;23548;51.196;6.838;2023-03-29T06:57:02;8.60;99.90
37702;DHT22;23548;51.196;6.838;2023-03-29T06:59:29;8.70;99.90
37702;DHT22;23548;51.196;6.838;2023-03-29T07:01:55;8.70;99.90
37702;DHT22;23548;51.196;6.838;2023-03-29T07:04:21;8.60;99.90
37702;DHT22;23548;51.196;6.838;2023-03-29T07:06:49;8.80;99.90
37702;DHT22;23548;51.196;6.838;2023-03-29T07:09:27;8.90;99.90
37702;DHT22;23548;51.196;6.838;2023-03-29T07:11:56;8.90;99.90
37702;DHT22;23548;51.196;6.838;2023-03-29T07:14:22;8.90;99.90
37702;DHT22;23548;51.196;6.838;2023-03-29T07:16:50;9.00;99.90
37702;DHT22;23548;51.196;6.838;2023-03-29T07:19:16;8.90;99.90
37702;DHT22;23548;51.196;6.838;2023-03-29T07:21:44;8.90;99.90
37702;DHT22;23548;51.196;6.838;2023-03-29T07:24:10;8.90;99.90
37702;DHT22;23548;51.196;6.838;2023-03-29T07:26:35;9.10;99.90
37702;DHT22;23548;51.196;6.838;2023-03-29T07:29:01;9.10;99.90
37702;DHT22;23548;51.196;6.838;2023-03-29T07:31:27;9.30;99.90
37702;DHT22;23548;51.196;6.838;2023-03-29T07:33:57;9.30;99.90
37702;DHT22;23548;51.196;6.838;2023-03-29T07:36:25;9.30;99.90
37702;DHT22;23548;51.196;6.838;2023-03-29T07:38:53;9.20;99.90
37702;DHT22;23548;51.196;6.838;2023-03-29T07:41:19;9.30;99.90
37702;DHT22;23548;51.196;6.838;2023-03-29T07:43:45;9.50;99.90
37702;DHT22;23548;51.196;6.838;2023-03-29T07:46:11;9.50;99.90
37702;DHT22;23548;51.196;6.838;2023-03-29T07:48:37;9.60;99.90
37702;DHT22;23548;51.196;6.838;2023-03-29T07:51:03;9.50;99.90
37702;DHT22;23548;51.196;6.838;2023-03-29T07:53:29;9.40;99.90
37702;DHT22;23548;51.196;6.838;2023-03-29T07:55:55;9.60;99.90
37702;DHT22;23548;51.196;6.838;2023-03-29T07:58:21;9.70;99.90
37702;DHT22;23548;51.196;6.838;2023-03-29T08:00:47;9.60;99.90
37702;DHT22;23548;51.196;6.838;2023-03-29T08:03:14;9.50;99.90
37702;DHT22;23548;51.196;6.838;2023-03-29T08:05:40;9.40;99.90
37702;DHT22;23548;51.196;6.838;2023-03-29T08:08:06;9.30;99.90
37702;DHT22;23548;51.196;6.838;2023-03-29T08:10:31;9.30;99.90
37702;DHT22;23548;51.196;6.838;2023-03-29T08:12:59;9.40;99.90
37702;DHT22;23548;51.196;6.838;2023-03-29T08:15:25;9.60;99.90
37702;DHT22;23548;51.196;6.838;2023-03-29T08:17:52;9.70;99.90
37702;DHT22;23548;51.196;6.838;2023-03-29T08:20:18;9.90;99.90
37702;DHT22;23548;51.196;6.838;2023-03-29T08:22:44;10.30;99.90
37702;DHT22;23548;51.196;6.838;2023-03-29T08:25:10;10.60;99.90
37702;DHT22;23548;51.196;6.838;2023-03-29T08:27:37;10.80;99.90
37702;DHT22;23548;51.196;6.838;2023-03-29T08:30:04;11.10;99.90
37702;DHT22;23548;51.196;6.838;2023-03-29T08:32:31;11.20;99.90
37702;DHT22;23548;51.196;6.838;2023-03-29T08:34:57;11.20;99.90
37702;DHT22;23548;51.196;6.838;2023-03-29T08:37:23;11.50;99.90
37702;DHT22;23548;51.196;6.838;2023-03-29T08:39:50;11.50;99.90
37702;DHT22;23548;51.196;6.838;2023-03-29T08:45:08;11.40;99.90
37702;DHT22;23548;51.196;6.838;2023-03-29T08:48:09;11.50;99.90
37702;DHT22;23548;51.196;6.838;2023-03-29T08:50:50;11.20;99.90
37702;DHT22;23548;51.196;6.838;2023-03-29T08:56:08;10.50;99.90
37702;DHT22;23548;51.196;6.838;2023-03-29T08:58:36;10.90;99.90
37702;DHT22;23548;51.196;6.838;2023-03-29T09:01:06;11.00;99.90
37702;DHT22;23548;51.196;6.838;2023-03-29T09:06:19;11.40;99.90
37702;DHT22;23548;51.196;6.838;2023-03-29T09:08:49;11.80;99.90
37702;DHT22;23548;51.196;6.838;2023-03-29T09:16:19;11.80;99.90
37702;DHT22;23548;51.196;6.838;2023-03-29T09:21:43;11.70;99.90
37702;DHT22;23548;51.196;6.838;2023-03-29T09:27:37;11.80;99.90
37702;DHT22;23548;51.196;6.838;2023-03-29T09:30:16;11.90;99.90
37702;DHT22;23548;51.196;6.838;2023-03-29T09:35:36;11.90;99.90
37702;DHT22;23548;51.196;6.838;2023-03-29T09:38:05;12.10;99.90
37702;DHT22;23548;51.196;6.838;2023-03-29T09:40:48;12.60;99.90
37702;DHT22;23548;51.196;6.838;2023-03-29T09:43:23;12.90;99.90
37702;DHT22;23548;51.196;6.838;2023-03-29T09:45:52;13.40;99.90
37702;DHT22;23548;51.196;6.838;2023-03-29T09:48:21;13.70;99.90
37702;DHT22;23548;51.196;6.838;2023-03-29T09:50:49;14.10;99.90
37702;DHT22;23548;51.196;6.838;2023-03-29T09:53:19;14.20;99.90
37702;DHT22;23548;51.196;6.838;2023-03-29T09:55:48;14.10;99.90
37702;DHT22;23548;51.196;6.838;2023-03-29T09:58:18;14.30;99.90
37702;DHT22;23548;51.196;6.838;2023-03-29T10:00:45;13.90;99.90
37702;DHT22;23548;51.196;6.838;2023-03-29T10:03:38;13.40;99.90
37702;DHT22;23548;51.196;6.838;2023-03-29T10:06:07;13.40;99.90
37702;DHT22;23548;51.196;6.838;2023-03-29T10:08:35;13.40;99.90
37702;DHT22;23548;51.196;6.838;2023-03-29T10:11:16;13.30;99.90
37702;DHT22;23548;51.196;6.838;2023-03-29T10:13:46;13.60;99.90
37702;DHT22;23548;51.196;6.838;2023-03-29T10:16:21;13.80;99.90
37702;DHT22;23548;51.196;6.838;2023-03-29T10:18:47;13.80;99.90
37702;DHT22;23548;51.196;6.838;2023-03-29T10:21:15;14.20;99.90
37702;DHT22;23548;51.196;6.838;2023-03-29T10:23:42;14.30;99.90
37702;DHT22;23548;51.196;6.838;2023-03-29T10:26:35;14.00;99.90
37702;DHT22;23548;51.196;6.838;2023-03-29T10:29:03;14.20;99.90
37702;DHT22;23548;51.196;6.838;2023-03-29T10:31:30;14.30;99.90
37702;DHT22;23548;51.196;6.838;2023-03-29T10:34:04;14.40;99.90
37702;DHT22;23548;51.196;6.838;2023-03-29T10:36:31;14.80;99.90
37702;DHT22;23548;51.196;6.838;2023-03-29T10:38:58;15.10;99.90
37702;DHT22;23548;51.196;6.838;2023-03-29T10:41:26;14.80;99.90
37702;DHT22;23548;51.196;6.838;2023-03-29T10:43:54;14.90;99.90
37702;DHT22;23548;51.196;6.838;2023-03-29T10:46:29;15.00;99.90
37702;DHT22;23548;51.196;6.838;2023-03-29T10:49:01;15.60;99.90
37702;DHT22;23548;51.196;6.838;2023-03-29T10:51:31;16.00;99.90
37702;DHT22;23548;51.196;6.838;2023-03-29T10:53:59;16.40;99.90
37702;DHT22;23548;51.196;6.838;2023-03-29T10:56:38;16.40;99.90
37702;DHT22;23548;51.196;6.838;2023-03-29T10:59:22;16.00;99.90
37702;DHT22;23548;51.196;6.838;2023-03-29T11:13:15;17.50;99.90
37702;DHT22;23548;51.196;6.838;2023-03-29T11:26:45;16.80;99.90
37702;DHT22;23548;51.196;6.838;2023-03-29T11:40:48;15.20;99.90
37702;DHT22;23548;51.196;6.838;2023-03-29T11:46:27;15.40;99.90
37702;DHT22;23548;51.196;6.838;2023-03-29T11:51:41;15.60;99.90
37702;DHT22;23548;51.196;6.838;2023-03-29T11:54:19;15.90;99.90
37702;DHT22;23548;51.196;6.838;2023-03-29T11:56:54;15.60;99.90
37702;DHT22;23548;51.196;6.838;2023-03-29T11:59:25;15.40;99.90
37702;DHT22;23548;51.196;6.838;2023-03-29T12:02:03;15.20;99.90
37702;DHT22;23548;51.196;6.838;2023-03-29T12:04:33;15.10;99.90
37702;DHT22;23548;51.196;6.838;2023-03-29T12:07:12;15.40;99.90
37702;DHT22;23548;51.196;6.838;2023-03-29T12:12:23;15.20;99.90
37702;DHT22;23548;51.196;6.838;2023-03-29T12:15:00;14.90;99.90
37702;DHT22;23548;51.196;6.838;2023-03-29T12:18:17;15.20;99.90
37702;DHT22;23548;51.196;6.838;2023-03-29T12:20:21;15.00;99.90
37702;DHT22;23548;51.196;6.838;2023-03-29T12:22:53;15.20;99.90
37702;DHT22;23548;51.196;6.838;2023-03-29T12:25:27;15.50;99.90
37702;DHT22;23548;51.196;6.838;2023-03-29T12:31:10;15.20;99.90
37702;DHT22;23548;51.196;6.838;2023-03-29T12:39:18;15.50;99.90
37702;DHT22;23548;51.196;6.838;2023-03-29T12:41:46;15.90;99.90
37702;DHT22;23548;51.196;6.838;2023-03-29T12:44:21;16.20;99.90
37702;DHT22;23548;51.196;6.838;2023-03-29T12:46:51;15.80;99.90
37702;DHT22;23548;51.196;6.838;2023-03-29T12:49:28;15.80;99.90
37702;DHT22;23548;51.196;6.838;2023-03-29T12:51:55;15.90;99.90
37702;DHT22;23548;51.196;6.838;2023-03-29T12:54:26;16.50;99.90
37702;DHT22;23548;51.196;6.838;2023-03-29T12:56:56;16.40;99.90
37702;DHT22;23548;51.196;6.838;2023-03-29T12:59:42;16.40;99.90
37702;DHT22;23548;51.196;6.838;2023-03-29T13:04:54;17.20;99.90
37702;DHT22;23548;51.196;6.838;2023-03-29T13:09:50;17.00;99.90
37702;DHT22;23548;51.196;6.838;2023-03-29T13:12:23;17.00;99.90
37702;DHT22;23548;51.196;6.838;2023-03-29T13:14:55;16.90;99.90
37702;DHT22;23548;51.196;6.838;2023-03-29T13:31:54;17.00;99.90
37702;DHT22;23548;51.196;6.838;2023-03-29T13:40:02;16.00;99.90
37702;DHT22;23548;51.196;6.838;2023-03-29T13:43:01;16.10;99.90
37702;DHT22;23548;51.196;6.838;2023-03-29T13:45:32;16.50;99.90
37702;DHT22;23548;51.196;6.838;2023-03-29T13:51:36;16.70;99.90
37702;DHT22;23548;51.196;6.838;2023-03-29T13:53:52;17.40;99.90
37702;DHT22;23548;51.196;6.838;2023-03-29T13:56:27;17.80;99.90
37702;DHT22;23548;51.196;6.838;2023-03-29T13:59:23;17.40;99.90
37702;DHT22;23548;51.196;6.838;2023-03-29T14:01:53;17.40;99.90
37702;DHT22;23548;51.196;6.838;2023-03-29T14:04:42;17.80;99.90
37702;DHT22;23548;51.196;6.838;2023-03-29T14:07:12;17.40;99.90
37702;DHT22;23548;51.196;6.838;2023-03-29T14:09:48;17.10;99.90
37702;DHT22;23548;51.196;6.838;2023-03-29T14:12:15;17.50;99.90
37702;DHT22;23548;51.196;6.838;2023-03-29T14:14:43;17.30;99.90
37702;DHT22;23548;51.196;6.838;2023-03-29T14:17:20;17.00;99.90
37702;DHT22;23548;51.196;6.838;2023-03-29T14:19:47;17.10;99.90
37702;DHT22;23548;51.196;6.838;2023-03-29T14:22:18;17.00;99.90
37702;DHT22;23548;51.196;6.838;2023-03-29T14:24:52;17.20;99.90
37702;DHT22;23548;51.196;6.838;2023-03-29T14:27:20;17.00;99.90
37702;DHT22;23548;51.196;6.838;2023-03-29T14:29:48;16.80;99.90
37702;DHT22;23548;51.196;6.838;2023-03-29T14:32:27;16.80;99.90
37702;DHT22;23548;51.196;6.838;2023-03-29T14:34:53;16.80;99.90
37702;DHT22;23548;51.196;6.838;2023-03-29T14:37:25;16.70;99.90
37702;DHT22;23548;51.196;6.838;2023-03-29T14:39:51;16.50;99.90
37702;DHT22;23548;51.196;6.838;2023-03-29T14:42:20;16.60;99.90
37702;DHT22;23548;51.196;6.838;2023-03-29T14:44:49;16.60;99.90
37702;DHT22;23548;51.196;6.838;2023-03-29T14:47:27;16.80;99.90
37702;DHT22;23548;51.196;6.838;2023-03-29T14:49:54;16.70;99.90
37702;DHT22;23548;51.196;6.838;2023-03-29T14:52:25;16.60;99.90
37702;DHT22;23548;51.196;6.838;2023-03-29T14:54:54;16.70;99.90
37702;DHT22;23548;51.196;6.838;2023-03-29T14:57:26;16.40;99.90
37702;DHT22;23548;51.196;6.838;2023-03-29T15:00:15;16.40;99.90
37702;DHT22;23548;51.196;6.838;2023-03-29T15:02:58;16.70;99.90
37702;DHT22;23548;51.196;6.838;2023-03-29T15:05:35;16.80;99.90
37702;DHT22;23548;51.196;6.838;2023-03-29T15:08:01;16.60;99.90
37702;DHT22;23548;51.196;6.838;2023-03-29T15:10:30;16.90;99.90
37702;DHT22;23548;51.196;6.838;2023-03-29T15:12:58;16.90;99.90
37702;DHT22;23548;51.196;6.838;2023-03-29T15:15:26;16.90;99.90
37702;DHT22;23548;51.196;6.838;2023-03-29T15:17:52;16.80;99.90
37702;DHT22;23548;51.196;6.838;2023-03-29T15:20:27;16.50;99.90
37702;DHT22;23548;51.196;6.838;2023-03-29T15:26:14;16.50;99.90
37702;DHT22;23548;51.196;6.838;2023-03-29T15:28:48;16.40;99.90
37702;DHT22;23548;51.196;6.838;2023-03-29T15:31:19;16.20;99.90
37702;DHT22;23548;51.196;6.838;2023-03-29T15:33:45;16.10;99.90
37702;DHT22;23548;51.196;6.838;2023-03-29T15:36:12;16.00;99.90
37702;DHT22;23548;51.196;6.838;2023-03-29T15:38:39;16.00;99.90
37702;DHT22;23548;51.196;6.838;2023-03-29T15:41:06;16.10;99.90
37702;DHT22;23548;51.196;6.838;2023-03-29T15:43:33;16.10;99.90
37702;DHT22;23548;51.196;6.838;2023-03-29T15:45:59;16.10;99.90
37702;DHT22;23548;51.196;6.838;2023-03-29T15:48:27;16.20;99.90
37702;DHT22;23548;51.196;6.838;2023-03-29T15:50:53;16.30;99.90
37702;DHT22;23548;51.196;6.838;2023-03-29T15:53:20;16.30;99.90
37702;DHT22;23548;51.196;6.838;2023-03-29T15:55:49;16.30;99.90
37702;DHT22;23548;51.196;6.838;2023-03-29T15:58:24;16.40;99.90
37702;DHT22;23548;51.196;6.838;2023-03-29T16:01:35;16.60;99.90
37702;DHT22;23548;51.196;6.838;2023-03-29T16:03:43;16.60;99.90
37702;DHT22;23548;51.196;6.838;2023-03-29T16:06:12;16.50;99.90
37702;DHT22;23548;51.196;6.838;2023-03-29T16:08:38;16.50;99.90
37702;DHT22;23548;51.196;6.838;2023-03-29T16:11:05;16.50;99.90
37702;DHT22;23548;51.196;6.838;2023-03-29T16:13:31;16.50;99.90
37702;DHT22;23548;51.196;6.838;2023-03-29T16:15:57;16.60;99.90
37702;DHT22;23548;51.196;6.838;2023-03-29T16:18:23;16.70;99.90
37702;DHT22;23548;51.196;6.838;2023-03-29T16:20:49;16.80;99.90
37702;DHT22;23548;51.196;6.838;2023-03-29T16:23:15;16.90;99.90
37702;DHT22;23548;51.196;6.838;2023-03-29T16:25:41;16.80;99.90
37702;DHT22;23548;51.196;6.838;2023-03-29T16:28:08;17.00;99.90
37702;DHT22;23548;51.196;6.838;2023-03-29T16:30:35;16.90;99.90
37702;DHT22;23548;51.196;6.838;2023-03-29T16:33:02;16.90;99.90
37702;DHT22;23548;51.196;6.838;2023-03-29T16:35:36;16.70;99.90
37702;DHT22;23548;51.196;6.838;2023-03-29T16:38:03;16.70;99.90
37702;DHT22;23548;51.196;6.838;2023-03-29T16:40:29;16.60;99.90
37702;DHT22;23548;51.196;6.838;2023-03-29T16:42:54;16.60;99.90
37702;DHT22;23548;51.196;6.838;2023-03-29T16:45:20;16.60;99.90
37702;DHT22;23548;51.196;6.838;2023-03-29T16:47:46;16.50;99.90
37702;DHT22;23548;51.196;6.838;2023-03-29T16:50:13;16.40;99.90
37702;DHT22;23548;51.196;6.838;2023-03-29T16:52:40;16.30;99.90
37702;DHT22;23548;51.196;6.838;2023-03-29T16:55:08;16.20;99.90
37702;DHT22;23548;51.196;6.838;2023-03-29T16:57:35;16.10;99.90
37702;DHT22;23548;51.196;6.838;2023-03-29T17:00:01;16.00;99.90
37702;DHT22;23548;51.196;6.838;2023-03-29T17:02:27;16.00;99.90
37702;DHT22;23548;51.196;6.838;2023-03-29T17:04:52;15.90;99.90
37702;DHT22;23548;51.196;6.838;2023-03-29T17:07:18;15.90;99.90
37702;DHT22;23548;51.196;6.838;2023-03-29T17:09:44;16.00;99.90
37702;DHT22;23548;51.196;6.838;2023-03-29T17:12:11;16.00;99.90
37702;DHT22;23548;51.196;6.838;2023-03-29T17:14:36;16.00;99.90
37702;DHT22;23548;51.196;6.838;2023-03-29T17:17:02;15.90;99.90
37702;DHT22;23548;51.196;6.838;2023-03-29T17:19:29;16.00;99.90
37702;DHT22;23548;51.196;6.838;2023-03-29T17:21:55;15.80;99.90
37702;DHT22;23548;51.196;6.838;2023-03-29T17:24:21;15.70;99.90
37702;DHT22;23548;51.196;6.838;2023-03-29T17:26:46;15.70;99.90
37702;DHT22;23548;51.196;6.838;2023-03-29T17:29:15;15.60;99.90
37702;DHT22;23548;51.196;6.838;2023-03-29T17:31:43;15.60;99.90
37702;DHT22;23548;51.196;6.838;2023-03-29T17:34:15;15.60;99.90
37702;DHT22;23548;51.196;6.838;2023-03-29T17:36:42;15.60;99.90
37702;DHT22;23548;51.196;6.838;2023-03-29T17:39:11;15.60;99.90
37702;DHT22;23548;51.196;6.838;2023-03-29T17:41:37;15.60;99.90
37702;DHT22;23548;51.196;6.838;2023-03-29T17:44:03;15.50;99.90
37702;DHT22;23548;51.196;6.838;2023-03-29T17:46:30;15.50;99.90
37702;DHT22;23548;51.196;6.838;2023-03-29T17:48:57;15.50;99.90
37702;DHT22;23548;51.196;6.838;2023-03-29T17:51:25;15.50;99.90
37702;DHT22;23548;51.196;6.838;2023-03-29T17:53:51;15.50;99.90